Time;durP1;ratioP1;P1;durP2;ratioP2;P2;SDS_P1;SDS_P2;PMS_P1;PMS_P2;Temp;Humidity;BMP_temperature;BMP_pressure;BME280_temperature;BME280_humidity;BME280_pressure;Samples;Min_cycle;Max_cycle;Signal;HPM_P1;HPM_P2
2023/08/04 00:00:35;;;;;;;2.28;1.60;;;;;;;;;;5071922;28;20056;-85
2023/08/04 00:03:00;;;;;;;2.53;1.63;;;;;;;;;;5072095;28;20032;-85
2023/08/04 00:05:26;;;;;;;2.75;1.70;;;;;;;;;;5073038;28;20036;-85
2023/08/04 00:07:51;;;;;;;1.63;1.40;;;;;;;;;;5071639;28;20025;-85
2023/08/04 00:10:17;;;;;;;2.85;1.70;;;;;;;;;;5073271;28;20436;-85
2023/08/04 00:12:42;;;;;;;2.33;1.70;;;;;;;;;;5071505;28;20029;-85
2023/08/04 00:15:08;;;;;;;2.50;1.75;;;;;;;;;;5072730;28;20078;-85
2023/08/04 00:17:35;;;;;;;3.00;1.60;;;;;;;;;;5072945;28;20032;-85
2023/08/04 00:20:01;;;;;;;1.95;1.30;;;;;;;;;;5071436;28;20021;-85
2023/08/04 00:22:26;;;;;;;2.88;1.75;;;;;;;;;;5073215;28;20032;-85
2023/08/04 00:24:52;;;;;;;1.90;1.20;;;;;;;;;;5071472;28;20415;-85
2023/08/04 00:27:18;;;;;;;2.28;1.52;;;;;;;;;;5072668;28;20056;-85
2023/08/04 00:29:43;;;;;;;2.70;1.63;;;;;;;;;;5088083;28;20082;-85
2023/08/04 00:32:08;;;;;;;3.78;1.80;;;;;;;;;;5072531;28;20043;-85
2023/08/04 00:34:34;;;;;;;2.22;1.50;;;;;;;;;;5071624;28;20032;-85
2023/08/04 00:36:59;;;;;;;2.20;1.50;;;;;;;;;;5071659;28;20529;-85
2023/08/04 00:39:24;;;;;;;2.03;1.40;;;;;;;;;;5074616;28;20030;-85
2023/08/04 00:41:50;;;;;;;2.50;1.58;;;;;;;;;;5075876;28;20040;-85
2023/08/04 00:44:15;;;;;;;2.70;1.60;;;;;;;;;;5108557;28;20538;-85
2023/08/04 00:46:41;;;;;;;2.80;1.60;;;;;;;;;;5076257;28;20033;-85
2023/08/04 00:49:07;;;;;;;1.55;1.45;;;;;;;;;;5075176;28;20040;-85
2023/08/04 00:51:32;;;;;;;2.33;1.45;;;;;;;;;;5075160;28;20463;-85
2023/08/04 00:53:59;;;;;;;2.45;1.50;;;;;;;;;;5074591;28;20044;-85
2023/08/04 00:56:24;;;;;;;1.83;1.30;;;;;;;;;;5074486;28;20040;-86
2023/08/04 00:58:49;;;;;;;4.40;1.30;;;;;;;;;;5057817;28;20025;-85
2023/08/04 01:01:15;;;;;;;2.45;1.45;;;;;;;;;;5057731;28;20479;-86
2023/08/04 01:03:40;;;;;;;1.88;1.40;;;;;;;;;;5057580;28;20032;-85
2023/08/04 01:06:30;;;;;;;2.45;1.00;;;;;;;;;;5074564;28;20028;-85
2023/08/04 01:09:22;;;;;;;3.97;1.50;;;;;;;;;;5074094;28;20027;-85
2023/08/04 01:12:02;;;;;;;2.55;1.40;;;;;;;;;;5072978;28;20028;-85
2023/08/04 01:14:28;;;;;;;1.33;1.20;;;;;;;;;;5075990;28;20021;-85
2023/08/04 01:16:53;;;;;;;4.57;1.52;;;;;;;;;;5075316;28;20036;-85
2023/08/04 01:19:19;;;;;;;2.35;1.35;;;;;;;;;;5057563;28;20020;-84
2023/08/04 01:21:45;;;;;;;1.80;1.33;;;;;;;;;;5074104;28;20463;-85
2023/08/04 01:24:10;;;;;;;2.42;1.40;;;;;;;;;;5074374;28;20039;-85
2023/08/04 01:26:41;;;;;;;2.47;1.10;;;;;;;;;;5074025;28;20479;-85
2023/08/04 01:29:08;;;;;;;2.40;1.55;;;;;;;;;;5073782;28;20070;-85
2023/08/04 01:31:34;;;;;;;2.40;1.27;;;;;;;;;;5074226;28;20356;-85
2023/08/04 01:33:59;;;;;;;2.53;1.73;;;;;;;;;;5074074;28;20032;-85
2023/08/04 01:36:25;;;;;;;3.13;1.75;;;;;;;;;;5074156;28;20371;-85
2023/08/04 01:38:50;;;;;;;2.15;1.48;;;;;;;;;;5073739;28;20074;-85
2023/08/04 01:41:15;;;;;;;2.35;1.40;;;;;;;;;;5074000;28;20428;-85
2023/08/04 01:43:41;;;;;;;3.45;1.65;;;;;;;;;;5075147;28;20032;-85
2023/08/04 01:46:06;;;;;;;1.67;1.15;;;;;;;;;;5075067;28;20471;-85
2023/08/04 01:48:31;;;;;;;1.50;1.20;;;;;;;;;;5073508;28;20032;-85
2023/08/04 01:50:57;;;;;;;2.95;1.80;;;;;;;;;;5072743;28;20033;-85
2023/08/04 01:53:22;;;;;;;2.40;1.35;;;;;;;;;;5074038;28;20059;-85
2023/08/04 01:55:48;;;;;;;3.30;1.23;;;;;;;;;;5073666;28;20471;-85
2023/08/04 01:58:13;;;;;;;2.67;1.35;;;;;;;;;;5075059;28;20036;-85
2023/08/04 02:00:39;;;;;;;3.03;1.67;;;;;;;;;;5074466;28;20028;-85
2023/08/04 02:03:04;;;;;;;2.80;1.35;;;;;;;;;;5073502;28;20029;-85
2023/08/04 02:05:30;;;;;;;4.53;1.70;;;;;;;;;;5074621;28;20112;-85
2023/08/04 02:07:55;;;;;;;2.60;1.50;;;;;;;;;;5073428;28;20386;-85
2023/08/04 02:10:20;;;;;;;2.97;1.77;;;;;;;;;;5074524;28;20028;-85
2023/08/04 02:12:46;;;;;;;2.75;1.50;;;;;;;;;;5074264;28;20033;-85
2023/08/04 02:15:11;;;;;;;1.52;1.17;;;;;;;;;;5074185;28;20035;-85
2023/08/04 02:17:36;;;;;;;2.47;1.50;;;;;;;;;;5056283;28;20036;-85
2023/08/04 02:20:03;;;;;;;2.17;1.40;;;;;;;;;;5073934;28;20111;-85
2023/08/04 02:22:28;;;;;;;2.80;1.40;;;;;;;;;;5074143;28;20028;-85
2023/08/04 02:24:53;;;;;;;1.20;1.10;;;;;;;;;;5072960;28;20106;-85
2023/08/04 02:27:19;;;;;;;2.08;1.50;;;;;;;;;;5073912;28;20048;-85
2023/08/04 02:29:44;;;;;;;1.40;1.20;;;;;;;;;;5056052;28;20407;-85
2023/08/04 02:32:10;;;;;;;1.60;1.30;;;;;;;;;;5074169;28;20097;-85
2023/08/04 02:34:36;;;;;;;1.75;1.20;;;;;;;;;;5074182;28;20064;-85
2023/08/04 02:37:01;;;;;;;1.63;1.20;;;;;;;;;;5072729;28;20071;-85
2023/08/04 02:39:27;;;;;;;2.28;1.30;;;;;;;;;;5073834;28;20032;-85
2023/08/04 02:41:53;;;;;;;3.88;1.27;;;;;;;;;;5072890;28;20382;-85
2023/08/04 02:44:18;;;;;;;1.58;1.13;;;;;;;;;;5072827;28;20031;-85
2023/08/04 02:46:45;;;;;;;1.90;1.10;;;;;;;;;;5072571;28;20043;-85
2023/08/04 02:49:10;;;;;;;2.28;1.20;;;;;;;;;;5073913;28;20029;-85
2023/08/04 02:51:35;;;;;;;1.73;1.25;;;;;;;;;;5073911;28;20042;-85
2023/08/04 02:54:01;;;;;;;1.83;1.20;;;;;;;;;;5072316;28;20039;-85
2023/08/04 02:56:27;;;;;;;2.10;1.17;;;;;;;;;;5073867;28;20033;-85
2023/08/04 02:58:52;;;;;;;2.05;1.30;;;;;;;;;;5073474;28;20020;-85
2023/08/04 03:01:17;;;;;;;1.48;1.23;;;;;;;;;;5072568;28;20037;-85
2023/08/04 03:03:43;;;;;;;1.25;1.05;;;;;;;;;;5072342;28;20048;-85
2023/08/04 03:06:09;;;;;;;1.42;1.10;;;;;;;;;;5073391;28;20055;-85
2023/08/04 03:08:34;;;;;;;1.40;1.20;;;;;;;;;;5072389;28;20060;-85
2023/08/04 03:11:00;;;;;;;2.30;1.42;;;;;;;;;;5073573;28;20039;-85
2023/08/04 03:13:25;;;;;;;2.85;1.20;;;;;;;;;;5055590;28;20032;-85
2023/08/04 03:15:58;;;;;;;1.52;1.20;;;;;;;;;;5073666;28;20031;-85
2023/08/04 03:18:24;;;;;;;1.63;1.20;;;;;;;;;;5072535;28;20047;-85
2023/08/04 03:20:49;;;;;;;2.13;1.20;;;;;;;;;;5074218;28;20029;-85
2023/08/04 03:23:15;;;;;;;2.33;1.40;;;;;;;;;;5075526;28;20028;-86
2023/08/04 03:25:40;;;;;;;2.55;1.30;;;;;;;;;;5072773;28;20036;-86
2023/08/04 03:28:06;;;;;;;1.58;1.20;;;;;;;;;;5073632;28;20044;-85
2023/08/04 03:30:31;;;;;;;1.13;1.02;;;;;;;;;;5075507;28;20119;-84
2023/08/04 03:32:56;;;;;;;2.30;1.40;;;;;;;;;;5074846;28;20036;-85
2023/08/04 03:35:22;;;;;;;1.75;1.25;;;;;;;;;;5074111;28;20039;-86
2023/08/04 03:37:47;;;;;;;2.03;1.10;;;;;;;;;;5073729;28;20119;-85
2023/08/04 03:40:14;;;;;;;3.30;1.40;;;;;;;;;;5073280;28;20104;-85
2023/08/04 03:42:40;;;;;;;1.23;1.10;;;;;;;;;;5073202;28;20024;-85
2023/08/04 03:45:06;;;;;;;2.03;1.20;;;;;;;;;;5073556;28;20043;-86
2023/08/04 03:47:32;;;;;;;1.55;1.13;;;;;;;;;;5072150;28;20112;-85
2023/08/04 03:49:57;;;;;;;2.30;1.17;;;;;;;;;;5073220;28;20111;-85
2023/08/04 03:52:23;;;;;;;2.05;1.05;;;;;;;;;;5071866;28;20083;-85
2023/08/04 03:54:48;;;;;;;1.65;1.20;;;;;;;;;;5073433;28;20036;-85
2023/08/04 03:57:14;;;;;;;2.03;1.30;;;;;;;;;;5054940;28;20113;-85
2023/08/04 03:59:39;;;;;;;2.60;1.30;;;;;;;;;;5071855;28;20028;-85
2023/08/04 04:02:05;;;;;;;2.05;1.20;;;;;;;;;;5071708;28;20036;-85
2023/08/04 04:04:31;;;;;;;1.48;1.15;;;;;;;;;;5073317;28;20107;-85
2023/08/04 04:06:56;;;;;;;1.58;1.23;;;;;;;;;;5071955;28;20520;-85
2023/08/04 04:09:21;;;;;;;1.40;1.10;;;;;;;;;;5073314;28;20028;-85
2023/08/04 04:11:47;;;;;;;2.97;1.05;;;;;;;;;;5082707;28;20092;-85
2023/08/04 04:14:12;;;;;;;2.13;1.40;;;;;;;;;;5076263;28;20036;-85
2023/08/04 04:16:37;;;;;;;2.47;1.20;;;;;;;;;;5075420;28;20483;-85
2023/08/04 04:19:03;;;;;;;2.40;1.20;;;;;;;;;;5076484;28;20024;-85
2023/08/04 04:21:28;;;;;;;1.15;1.05;;;;;;;;;;5076917;28;20097;-85
2023/08/04 04:23:54;;;;;;;1.85;1.10;;;;;;;;;;5076406;28;20038;-85
2023/08/04 04:26:19;;;;;;;1.42;1.17;;;;;;;;;;5076619;28;20361;-85
2023/08/04 04:28:44;;;;;;;2.35;1.20;;;;;;;;;;5076138;28;20510;-85
2023/08/04 04:31:10;;;;;;;1.35;1.00;;;;;;;;;;5076558;28;20033;-85
2023/08/04 04:33:35;;;;;;;4.72;1.20;;;;;;;;;;5076296;28;20024;-85
2023/08/04 04:36:01;;;;;;;2.05;1.00;;;;;;;;;;5076213;28;20079;-85
2023/08/04 04:38:28;;;;;;;3.47;1.10;;;;;;;;;;5076423;28;20029;-85
2023/08/04 04:41:01;;;;;;;2.78;1.23;;;;;;;;;;5074940;28;20157;-85
2023/08/04 04:43:27;;;;;;;1.70;1.00;;;;;;;;;;5075140;28;20043;-86
2023/08/04 04:45:52;;;;;;;2.80;1.50;;;;;;;;;;5091606;28;20764;-85
2023/08/04 04:48:19;;;;;;;1.60;1.20;;;;;;;;;;5075837;28;20032;-85
2023/08/04 04:50:44;;;;;;;1.83;1.40;;;;;;;;;;5074982;28;20043;-85
2023/08/04 04:53:10;;;;;;;2.13;1.20;;;;;;;;;;5074826;28;20032;-85
2023/08/04 04:55:35;;;;;;;2.53;1.20;;;;;;;;;;5091525;28;20112;-85
2023/08/04 04:58:01;;;;;;;2.60;1.10;;;;;;;;;;5075256;28;20436;-85
2023/08/04 05:00:27;;;;;;;2.13;1.23;;;;;;;;;;5091794;28;20463;-85
2023/08/04 05:02:52;;;;;;;3.28;1.30;;;;;;;;;;5075815;28;20062;-85
2023/08/04 05:05:17;;;;;;;1.80;1.13;;;;;;;;;;5075672;28;20036;-85
2023/08/04 05:07:43;;;;;;;2.05;1.20;;;;;;;;;;5074570;28;20402;-86
2023/08/04 05:10:09;;;;;;;2.95;1.17;;;;;;;;;;5076187;28;20021;-85
2023/08/04 05:12:34;;;;;;;1.65;1.00;;;;;;;;;;5075640;28;20535;-85
2023/08/04 05:15:00;;;;;;;1.80;1.20;;;;;;;;;;5075814;28;20052;-85
2023/08/04 05:17:25;;;;;;;1.83;1.20;;;;;;;;;;5076129;28;20055;-85
2023/08/04 05:19:50;;;;;;;1.23;1.00;;;;;;;;;;5075834;28;20093;-85
2023/08/04 05:22:16;;;;;;;1.48;1.10;;;;;;;;;;5075624;28;20040;-85
2023/08/04 05:24:41;;;;;;;1.45;1.00;;;;;;;;;;5073531;28;20427;-85
2023/08/04 05:27:08;;;;;;;2.70;1.33;;;;;;;;;;5074575;28;20035;-85
2023/08/04 05:29:33;;;;;;;1.67;1.13;;;;;;;;;;5054167;28;20037;-85
2023/08/04 05:31:58;;;;;;;1.80;1.10;;;;;;;;;;5054032;28;20396;-85
2023/08/04 05:34:24;;;;;;;1.90;1.20;;;;;;;;;;5055589;28;20130;-85
2023/08/04 05:36:49;;;;;;;0.90;0.90;;;;;;;;;;5054015;28;20391;-85
2023/08/04 05:39:14;;;;;;;1.20;1.10;;;;;;;;;;5055375;28;20032;-85
2023/08/04 05:41:41;;;;;;;2.47;1.20;;;;;;;;;;5054223;28;20426;-85
2023/08/04 05:44:07;;;;;;;1.30;0.95;;;;;;;;;;5070928;28;20048;-85
2023/08/04 05:46:32;;;;;;;2.80;1.20;;;;;;;;;;5055558;28;20029;-85
2023/08/04 05:48:57;;;;;;;2.20;1.20;;;;;;;;;;5054010;28;20031;-85
2023/08/04 05:51:23;;;;;;;1.98;1.00;;;;;;;;;;5053761;28;20036;-85
2023/08/04 05:53:48;;;;;;;1.50;0.90;;;;;;;;;;5036913;28;20033;-85
2023/08/04 05:56:13;;;;;;;1.20;1.10;;;;;;;;;;5053446;28;20043;-85
2023/08/04 05:58:39;;;;;;;1.42;1.15;;;;;;;;;;5070200;28;20025;-85
2023/08/04 06:01:06;;;;;;;1.00;0.95;;;;;;;;;;5053833;28;20029;-85
2023/08/04 06:03:31;;;;;;;1.25;1.10;;;;;;;;;;5055097;28;20480;-85
2023/08/04 06:05:58;;;;;;;2.10;1.20;;;;;;;;;;5036819;28;20040;-85
2023/08/04 06:08:24;;;;;;;1.95;1.00;;;;;;;;;;5069962;28;20556;-85
2023/08/04 06:10:49;;;;;;;1.92;1.20;;;;;;;;;;5054895;28;20120;-85
2023/08/04 06:13:14;;;;;;;2.65;1.15;;;;;;;;;;5054065;28;20040;-85
2023/08/04 06:15:40;;;;;;;1.35;1.00;;;;;;;;;;5053548;28;20087;-85
2023/08/04 06:18:05;;;;;;;1.95;1.20;;;;;;;;;;5054436;28;20074;-86
2023/08/04 06:20:31;;;;;;;1.73;1.13;;;;;;;;;;5054806;28;20040;-85
2023/08/04 06:22:57;;;;;;;2.15;1.13;;;;;;;;;;5054656;28;20102;-85
2023/08/04 06:25:22;;;;;;;1.20;0.90;;;;;;;;;;5055346;28;20361;-84
2023/08/04 06:27:49;;;;;;;2.22;1.10;;;;;;;;;;5060406;28;20052;-85
2023/08/04 06:30:15;;;;;;;1.42;1.17;;;;;;;;;;5074566;28;20562;-85
2023/08/04 06:32:40;;;;;;;2.17;1.00;;;;;;;;;;5073215;28;20056;-85
2023/08/04 06:35:07;;;;;;;1.55;1.15;;;;;;;;;;5056648;28;20505;-85
2023/08/04 06:37:32;;;;;;;1.42;1.00;;;;;;;;;;5073032;28;20450;-85
2023/08/04 06:39:57;;;;;;;0.90;0.90;;;;;;;;;;5089878;28;20024;-85
2023/08/04 06:42:23;;;;;;;1.25;1.02;;;;;;;;;;5056133;28;20028;-85
2023/08/04 06:44:48;;;;;;;0.90;0.90;;;;;;;;;;5074034;28;20098;-85
2023/08/04 06:47:14;;;;;;;1.35;1.05;;;;;;;;;;5074246;28;20109;-85
2023/08/04 06:49:40;;;;;;;1.08;0.90;;;;;;;;;;5073898;28;20032;-85
2023/08/04 06:52:06;;;;;;;1.42;1.00;;;;;;;;;;5073049;28;20028;-85
2023/08/04 06:54:32;;;;;;;2.05;1.10;;;;;;;;;;5089667;28;20039;-85
2023/08/04 06:56:57;;;;;;;1.85;1.08;;;;;;;;;;5074139;28;20024;-85
2023/08/04 06:59:22;;;;;;;1.75;1.00;;;;;;;;;;5072987;28;20408;-85
2023/08/04 07:01:48;;;;;;;1.02;0.93;;;;;;;;;;5072501;28;20450;-85
2023/08/04 07:04:13;;;;;;;1.05;0.90;;;;;;;;;;5073475;28;20032;-85
2023/08/04 07:06:39;;;;;;;3.50;1.25;;;;;;;;;;5072815;28;20020;-85
2023/08/04 07:09:04;;;;;;;1.48;1.10;;;;;;;;;;5074094;28;20047;-85
2023/08/04 07:11:30;;;;;;;2.08;1.10;;;;;;;;;;5073908;28;20059;-85
2023/08/04 07:13:55;;;;;;;1.13;0.90;;;;;;;;;;5073490;28;20467;-85
2023/08/04 07:16:21;;;;;;;2.65;0.93;;;;;;;;;;5072320;28;20029;-85
2023/08/04 07:18:47;;;;;;;1.20;0.90;;;;;;;;;;5072523;28;20012;-85
2023/08/04 07:21:13;;;;;;;1.30;0.93;;;;;;;;;;5055723;28;20043;-85
2023/08/04 07:23:40;;;;;;;1.08;0.98;;;;;;;;;;5072522;28;20361;-85
2023/08/04 07:26:06;;;;;;;1.63;1.10;;;;;;;;;;5072715;28;20127;-85
2023/08/04 07:28:32;;;;;;;2.35;1.20;;;;;;;;;;5073206;28;22007;-85
2023/08/04 07:30:59;;;;;;;1.75;0.98;;;;;;;;;;5072418;28;20104;-85
2023/08/04 07:33:25;;;;;;;2.10;1.08;;;;;;;;;;5073621;28;20025;-85
2023/08/04 07:35:58;;;;;;;2.83;1.30;;;;;;;;;;5072189;28;20020;-86
2023/08/04 07:38:23;;;;;;;2.22;1.10;;;;;;;;;;5073649;28;20071;-86
2023/08/04 07:40:50;;;;;;;2.20;1.35;;;;;;;;;;5072049;28;20052;-87
2023/08/04 07:43:15;;;;;;;1.48;1.13;;;;;;;;;;5072157;28;20056;-86
2023/08/04 07:45:41;;;;;;;1.75;1.10;;;;;;;;;;5072228;28;20059;-85
2023/08/04 07:48:06;;;;;;;2.15;1.30;;;;;;;;;;5074986;28;20028;-86
2023/08/04 07:50:35;;;;;;;1.17;1.10;;;;;;;;;;5076088;28;20410;-86
2023/08/04 07:53:00;;;;;;;1.63;1.10;;;;;;;;;;5075848;28;20047;-86
2023/08/04 07:55:26;;;;;;;2.33;1.20;;;;;;;;;;5077585;28;20024;-85
2023/08/04 07:57:51;;;;;;;1.73;1.10;;;;;;;;;;5077012;28;20032;-86
2023/08/04 08:00:17;;;;;;;1.45;1.02;;;;;;;;;;5076900;28;20074;-86
2023/08/04 08:02:42;;;;;;;2.05;1.10;;;;;;;;;;5077220;28;20381;-84
2023/08/04 08:05:08;;;;;;;1.73;1.10;;;;;;;;;;5075472;28;20490;-84
2023/08/04 08:07:34;;;;;;;2.22;1.30;;;;;;;;;;5058230;28;20077;-82
2023/08/04 08:10:00;;;;;;;1.67;1.42;;;;;;;;;;5091653;28;20017;-83
2023/08/04 08:12:25;;;;;;;2.25;1.10;;;;;;;;;;5074848;28;20039;-83
2023/08/04 08:14:51;;;;;;;2.13;1.42;;;;;;;;;;5076101;28;20114;-84
2023/08/04 08:17:16;;;;;;;1.48;1.13;;;;;;;;;;5076243;28;20021;-84
2023/08/04 08:19:42;;;;;;;1.75;1.23;;;;;;;;;;5074854;28;20036;-83
2023/08/04 08:22:08;;;;;;;3.70;1.15;;;;;;;;;;5074918;28;20037;-83
2023/08/04 08:24:33;;;;;;;1.25;1.05;;;;;;;;;;5074907;28;20028;-83
2023/08/04 08:26:59;;;;;;;2.10;1.00;;;;;;;;;;5076211;28;20532;-83
2023/08/04 08:29:24;;;;;;;0.80;0.80;;;;;;;;;;5059070;28;20053;-84
2023/08/04 08:31:49;;;;;;;1.45;1.00;;;;;;;;;;5074569;28;20122;-84
2023/08/04 08:34:15;;;;;;;1.08;0.82;;;;;;;;;;5075678;28;20435;-83
2023/08/04 08:36:40;;;;;;;3.28;1.10;;;;;;;;;;5074455;28;20086;-84
2023/08/04 08:39:07;;;;;;;1.05;1.00;;;;;;;;;;5074623;28;20078;-83
2023/08/04 08:41:33;;;;;;;1.33;0.90;;;;;;;;;;5075796;28;20029;-84
2023/08/04 08:43:58;;;;;;;2.65;1.00;;;;;;;;;;5091699;28;20052;-83
2023/08/04 08:46:25;;;;;;;1.35;1.05;;;;;;;;;;5076524;28;20399;-83
2023/08/04 08:48:51;;;;;;;2.08;1.38;;;;;;;;;;5074266;28;20494;-82
2023/08/04 08:51:19;;;;;;;0.90;0.85;;;;;;;;;;5075785;28;20040;-83
2023/08/04 08:53:46;;;;;;;1.17;1.08;;;;;;;;;;5108114;28;20360;-83
2023/08/04 08:56:13;;;;;;;1.05;0.80;;;;;;;;;;5074344;28;20020;-83
2023/08/04 08:58:39;;;;;;;1.38;0.90;;;;;;;;;;5091045;28;20483;-84
2023/08/04 09:01:04;;;;;;;1.70;1.02;;;;;;;;;;5074550;28;20235;-85
2023/08/04 09:03:30;;;;;;;0.80;0.80;;;;;;;;;;5074763;28;20028;-83
2023/08/04 09:05:56;;;;;;;1.90;1.02;;;;;;;;;;5074799;28;20044;-84
2023/08/04 09:08:21;;;;;;;1.90;0.95;;;;;;;;;;5057606;28;20434;-84
2023/08/04 09:10:47;;;;;;;1.13;1.00;;;;;;;;;;5074433;28;20028;-84
2023/08/04 09:13:14;;;;;;;3.65;0.95;;;;;;;;;;5057858;28;20078;-84
2023/08/04 09:15:50;;;;;;;3.03;1.10;;;;;;;;;;5075829;28;20024;-84
2023/08/04 09:18:25;;;;;;;1.10;0.90;;;;;;;;;;5074677;28;20423;-85
2023/08/04 09:21:00;;;;;;;3.30;1.00;;;;;;;;;;5076414;28;20028;-84
2023/08/04 09:23:29;;;;;;;3.58;0.95;;;;;;;;;;5074421;28;20039;-85
2023/08/04 09:25:55;;;;;;;1.38;1.00;;;;;;;;;;5073847;28;20114;-85
2023/08/04 09:28:20;;;;;;;1.38;1.05;;;;;;;;;;5090465;28;20076;-86
2023/08/04 09:31:00;;;;;;;3.70;1.10;;;;;;;;;;5075263;28;20036;-89
2023/08/04 09:33:25;;;;;;;1.90;1.20;;;;;;;;;;5073882;28;20027;-85
2023/08/04 09:36:02;;;;;;;1.60;1.05;;;;;;;;;;5074053;28;20033;-87
2023/08/04 09:38:27;;;;;;;4.82;1.52;;;;;;;;;;5074616;28;20077;-88
2023/08/04 09:41:15;;;;;;;3.30;1.00;;;;;;;;;;5108681;28;20445;-90
2023/08/04 09:43:47;;;;;;;2.90;1.20;;;;;;;;;;5071277;28;20028;-89
2023/08/04 09:46:14;;;;;;;3.03;1.10;;;;;;;;;;5075156;28;20021;-90
2023/08/04 09:48:40;;;;;;;2.97;1.20;;;;;;;;;;5075755;28;20044;-89
2023/08/04 09:51:12;;;;;;;1.70;1.00;;;;;;;;;;5074791;28;20032;-90
2023/08/04 09:53:42;;;;;;;1.60;1.25;;;;;;;;;;5075895;28;20036;-90
2023/08/04 09:56:09;;;;;;;2.20;1.00;;;;;;;;;;5076974;28;20023;-90
2023/08/04 09:58:35;;;;;;;5.90;1.30;;;;;;;;;;5077053;28;20032;-90
2023/08/04 10:01:02;;;;;;;3.67;1.10;;;;;;;;;;5076516;28;20031;-90
2023/08/04 10:03:29;;;;;;;2.08;1.15;;;;;;;;;;5076947;28;20036;-90
2023/08/04 10:05:59;;;;;;;2.13;1.02;;;;;;;;;;5077004;28;20391;-88
2023/08/04 10:08:28;;;;;;;3.15;1.23;;;;;;;;;;5085311;28;20024;-90
2023/08/04 10:10:55;;;;;;;1.63;1.05;;;;;;;;;;5094322;28;20474;-90
2023/08/04 10:13:20;;;;;;;2.08;1.10;;;;;;;;;;5043371;28;20029;-89
2023/08/04 10:15:47;;;;;;;2.30;1.20;;;;;;;;;;5077164;28;20029;-88
2023/08/04 10:18:13;;;;;;;2.67;1.00;;;;;;;;;;5075149;28;20021;-87
2023/08/04 10:20:38;;;;;;;1.42;0.95;;;;;;;;;;5041377;28;20036;-88
2023/08/04 10:23:04;;;;;;;2.67;1.30;;;;;;;;;;5057510;28;20043;-89
2023/08/04 10:25:30;;;;;;;2.55;1.10;;;;;;;;;;5057279;28;20024;-87
2023/08/04 10:27:57;;;;;;;2.58;1.40;;;;;;;;;;5093498;28;20059;-87
2023/08/04 10:30:24;;;;;;;2.42;1.20;;;;;;;;;;5077171;28;20024;-89
2023/08/04 10:32:50;;;;;;;2.47;1.13;;;;;;;;;;5080835;28;20025;-86
2023/08/04 10:35:21;;;;;;;9.80;1.40;;;;;;;;;;5074519;28;20043;-87
2023/08/04 10:37:55;;;;;;;1.77;1.30;;;;;;;;;;5059285;28;20025;-86
2023/08/04 10:40:31;;;;;;;2.85;1.58;;;;;;;;;;5075133;28;20386;-86
2023/08/04 10:43:05;;;;;;;2.45;1.30;;;;;;;;;;5074324;28;20421;-86
2023/08/04 10:45:52;;;;;;;1.50;1.23;;;;;;;;;;5074571;28;20027;-88
2023/08/04 10:48:22;;;;;;;3.30;1.50;;;;;;;;;;5073605;28;20017;-87
2023/08/04 10:50:50;;;;;;;3.10;1.40;;;;;;;;;;5056273;28;20115;-86
2023/08/04 10:53:16;;;;;;;1.52;1.08;;;;;;;;;;5073144;28;20036;-87
2023/08/04 10:55:56;;;;;;;3.38;1.60;;;;;;;;;;5073770;28;20043;-87
2023/08/04 10:58:26;;;;;;;2.50;1.20;;;;;;;;;;5073911;28;20475;-87
2023/08/04 11:00:56;;;;;;;1.63;1.00;;;;;;;;;;5072984;28;20090;-88
2023/08/04 11:03:24;;;;;;;1.42;1.00;;;;;;;;;;5073199;28;20024;-88
2023/08/04 11:05:51;;;;;;;2.00;1.00;;;;;;;;;;5057446;28;20034;-88
2023/08/04 11:08:19;;;;;;;3.10;1.30;;;;;;;;;;5057066;28;20034;-87
2023/08/04 11:10:55;;;;;;;1.40;1.25;;;;;;;;;;5056732;28;20031;-87
2023/08/04 11:13:23;;;;;;;5.28;1.20;;;;;;;;;;5055846;28;20487;-88
2023/08/04 11:15:53;;;;;;;3.45;1.30;;;;;;;;;;5075973;28;20028;-88
2023/08/04 11:18:26;;;;;;;4.97;1.15;;;;;;;;;;5057132;28;20383;-87
2023/08/04 11:20:52;;;;;;;2.20;1.00;;;;;;;;;;5075032;28;20032;-88
2023/08/04 11:23:31;;;;;;;2.30;1.23;;;;;;;;;;5090220;28;20021;-89
2023/08/04 11:25:58;;;;;;;1.77;1.13;;;;;;;;;;5058400;28;20372;-87
2023/08/04 11:28:25;;;;;;;2.30;1.10;;;;;;;;;;5073277;28;20044;-87
2023/08/04 11:30:54;;;;;;;2.17;1.05;;;;;;;;;;5078304;28;20036;-88
2023/08/04 11:33:20;;;;;;;2.35;1.17;;;;;;;;;;5072066;28;20028;-87
2023/08/04 11:35:45;;;;;;;2.63;1.42;;;;;;;;;;5073394;28;20196;-88
2023/08/04 11:38:11;;;;;;;2.13;1.17;;;;;;;;;;5071234;28;20060;-87
2023/08/04 11:40:54;;;;;;;1.35;0.95;;;;;;;;;;5054918;28;20119;-88
2023/08/04 11:43:20;;;;;;;2.85;1.35;;;;;;;;;;5071094;28;20047;-88
2023/08/04 11:45:50;;;;;;;1.10;0.95;;;;;;;;;;5073860;28;20514;-88
2023/08/04 11:48:18;;;;;;;2.60;1.38;;;;;;;;;;5072101;28;20059;-87
2023/08/04 11:50:46;;;;;;;2.65;1.10;;;;;;;;;;5071139;28;20093;-88
2023/08/04 11:53:16;;;;;;;1.88;1.20;;;;;;;;;;5071274;28;20024;-85
2023/08/04 11:55:54;;;;;;;5.45;1.10;;;;;;;;;;5071018;28;20040;-87
2023/08/04 11:58:30;;;;;;;1.27;1.10;;;;;;;;;;5072842;28;20032;-86
2023/08/04 12:00:56;;;;;;;5.28;1.85;;;;;;;;;;5071215;28;20016;-86
2023/08/04 12:03:21;;;;;;;3.72;1.02;;;;;;;;;;5072074;28;20086;-86
2023/08/04 12:05:47;;;;;;;2.15;1.20;;;;;;;;;;5071425;28;20028;-87
2023/08/04 12:08:15;;;;;;;1.65;0.98;;;;;;;;;;5071771;28;20028;-87
2023/08/04 12:10:41;;;;;;;1.77;1.02;;;;;;;;;;5070636;28;20052;-88
2023/08/04 12:13:07;;;;;;;1.88;1.10;;;;;;;;;;5072131;28;20035;-88
2023/08/04 12:15:54;;;;;;;0.93;0.90;;;;;;;;;;5070496;28;20407;-87
2023/08/04 12:18:28;;;;;;;2.60;1.20;;;;;;;;;;5053500;28;20033;-86
2023/08/04 12:20:53;;;;;;;;;;;;;;;;;;5071225;28;20025;-86
2023/08/04 12:23:19;;;;;;;1.15;1.10;;;;;;;;;;5087731;28;19959;-86
2023/08/04 12:25:44;;;;;;;1.58;1.08;;;;;;;;;;5053603;28;20033;-87
2023/08/04 12:28:11;;;;;;;2.38;1.00;;;;;;;;;;5021761;28;1389333;-87
2023/08/04 12:30:37;;;;;;;1.88;1.10;;;;;;;;;;5071064;28;20033;-87
2023/08/04 12:33:03;;;;;;;3.10;0.90;;;;;;;;;;5071010;28;20025;-88
2023/08/04 12:35:29;;;;;;;2.42;1.10;;;;;;;;;;5076218;28;20040;-87
2023/08/04 12:37:54;;;;;;;1.02;0.90;;;;;;;;;;5058437;28;20047;-86
2023/08/04 12:40:20;;;;;;;1.95;1.15;;;;;;;;;;5108682;28;20025;-87
2023/08/04 12:42:45;;;;;;;1.90;1.05;;;;;;;;;;5075961;28;20518;-86
2023/08/04 12:45:11;;;;;;;2.78;1.02;;;;;;;;;;5074569;28;20087;-88
2023/08/04 12:47:36;;;;;;;2.53;1.00;;;;;;;;;;5074997;28;20475;-88
2023/08/04 12:50:01;;;;;;;2.25;1.00;;;;;;;;;;5057725;28;20025;-87
2023/08/04 12:52:27;;;;;;;1.52;0.95;;;;;;;;;;5076070;28;20082;-88
2023/08/04 12:54:52;;;;;;;1.17;0.90;;;;;;;;;;5075918;28;20050;-87
2023/08/04 12:57:18;;;;;;;1.63;1.00;;;;;;;;;;5074792;28;20090;-88
2023/08/04 12:59:43;;;;;;;2.35;1.00;;;;;;;;;;5075987;28;20074;-88
2023/08/04 13:02:09;;;;;;;1.42;1.00;;;;;;;;;;5074458;28;20027;-87
2023/08/04 13:04:35;;;;;;;1.40;1.00;;;;;;;;;;5057329;28;20460;-87
2023/08/04 13:07:03;;;;;;;1.88;1.00;;;;;;;;;;5074375;28;20024;-88
2023/08/04 13:09:29;;;;;;;0.95;0.95;;;;;;;;;;5074202;28;20036;-87
2023/08/04 13:11:54;;;;;;;1.73;0.90;;;;;;;;;;5074433;28;20039;-86
2023/08/04 13:14:19;;;;;;;2.10;1.00;;;;;;;;;;5073986;28;20040;-87
2023/08/04 13:16:46;;;;;;;2.25;0.90;;;;;;;;;;5074002;28;20533;-88
2023/08/04 13:19:11;;;;;;;1.55;1.00;;;;;;;;;;5074768;28;20048;-86
2023/08/04 13:21:37;;;;;;;1.13;0.90;;;;;;;;;;5075320;28;20037;-88
2023/08/04 13:24:02;;;;;;;1.17;0.82;;;;;;;;;;5074501;28;20086;-88
2023/08/04 13:26:28;;;;;;;2.70;0.90;;;;;;;;;;5075341;28;20035;-88
2023/08/04 13:28:53;;;;;;;1.77;0.85;;;;;;;;;;5074189;28;20504;-88
2023/08/04 13:31:19;;;;;;;2.25;0.93;;;;;;;;;;5075810;28;20032;-89
2023/08/04 13:33:45;;;;;;;1.42;1.10;;;;;;;;;;5075014;28;20127;-87
2023/08/04 13:36:11;;;;;;;0.93;0.90;;;;;;;;;;5074989;28;20028;-88
2023/08/04 13:38:37;;;;;;;0.70;0.70;;;;;;;;;;5060598;28;20028;-87
2023/08/04 13:41:03;;;;;;;1.05;0.85;;;;;;;;;;5079754;28;20438;-88
2023/08/04 13:43:28;;;;;;;1.88;0.98;;;;;;;;;;5076300;28;20441;-89
2023/08/04 13:45:55;;;;;;;1.52;1.20;;;;;;;;;;5073741;28;20471;-87
2023/08/04 13:48:20;;;;;;;3.20;0.88;;;;;;;;;;5074502;28;20029;-89
2023/08/04 13:50:46;;;;;;;1.67;0.85;;;;;;;;;;5040545;28;20146;-87
2023/08/04 13:53:12;;;;;;;2.55;1.02;;;;;;;;;;5058129;28;20032;-87
2023/08/04 13:55:38;;;;;;;1.48;0.88;;;;;;;;;;5090974;28;20036;-88
2023/08/04 13:58:04;;;;;;;0.77;0.70;;;;;;;;;;5075243;28;20031;-87
2023/08/04 14:00:30;;;;;;;1.60;0.98;;;;;;;;;;5074192;28;20367;-87
2023/08/04 14:02:56;;;;;;;2.08;0.93;;;;;;;;;;5074075;28;20020;-87
2023/08/04 14:05:22;;;;;;;1.00;0.82;;;;;;;;;;5073900;28;20031;-88
2023/08/04 14:07:48;;;;;;;0.82;0.80;;;;;;;;;;5074763;28;20050;-87
2023/08/04 14:10:14;;;;;;;3.00;0.88;;;;;;;;;;5074316;28;20136;-87
2023/08/04 14:12:39;;;;;;;0.82;0.70;;;;;;;;;;5075439;28;20052;-87
2023/08/04 14:15:06;;;;;;;1.23;0.80;;;;;;;;;;5108185;28;20620;-87
2023/08/04 14:17:31;;;;;;;0.77;0.70;;;;;;;;;;5074252;28;20024;-87
2023/08/04 14:19:56;;;;;;;1.50;0.88;;;;;;;;;;5091212;28;20092;-87
2023/08/04 14:22:22;;;;;;;0.98;0.80;;;;;;;;;;5057609;28;20040;-88
2023/08/04 14:24:49;;;;;;;2.33;0.90;;;;;;;;;;5073634;28;20157;-87
2023/08/04 14:27:14;;;;;;;0.80;0.70;;;;;;;;;;5073938;28;20028;-87
2023/08/04 14:29:40;;;;;;;1.13;0.70;;;;;;;;;;5073265;28;20051;-87
2023/08/04 14:32:05;;;;;;;1.23;0.70;;;;;;;;;;5073831;28;20170;-87
2023/08/04 14:34:31;;;;;;;1.05;0.80;;;;;;;;;;5073377;28;20032;-86
2023/08/04 14:36:56;;;;;;;1.65;0.77;;;;;;;;;;5074310;28;20024;-86
2023/08/04 14:39:22;;;;;;;0.98;0.70;;;;;;;;;;5073626;28;20031;-86